Timeline UpdatesTrip UpdatesNews PostsPvt PostsTravel TipsAdmin PostsConv PostsFollowed PostsChat RequestsBlog PostsPNR Posts

Disclaimer
Search
 
 
Wed Oct 1, 2014 05:31:11 ISTHomeTrainsΣChainsAtlasPNRForumGalleryNewsFAQTripsMembersLoginFeedback
No Recent News for this Train
Other Trains in the News **new
Latest...
.
Sat Feb 22, 2014 (10:28PM)
⇐ Return Journey: Train# 58111

58112/Itwari-Tatanagar Jn Passenger

Time-Table HAS CHANGED.
Sep 03 (1:12PM)
Change Departure Station:
Change Arrival Station:
Post a Train Travel TipPost a Train Travel Tip **new
Post a Comment/Question/Picture/VideoPost a Comment/Question/Picture/Video
Pantry/Catering
✕ NO Pantry Car
✕ NO Catering
RSA - Rake Sharing
Rake/Coach Composition
ENG:SLR-1 UR-3 SL-4 UR-3 VP-1 SLR-1; Entry# 189608 ; Author: sunilsagitarius
Loco
WAM-4 TATA Shed; Entry# 545455
News    PNR    Forum    Time-Table    Availability    Fare Chart    Map    Arr/Dep History    Trips    Gallery    ΣChains    X/O    Timeline    
Travel Time: 10h 45m    36 halts    Distance: 273 km    Avg Speed: 25 km/hr
Type: Passenger
Zone: SER/South Eastern
Departs @ 13:20 (Avg 59m late)
Platform# ???
SMTWTFS
Ib/IB 
Arrives @ 00:05 +1 night (Avg 3m late)
Platform# 4
SMTWTFS
Tatanagar Junction/TATA 

36 halts. 38 intermediate Stations between Ib and Tatanagar Junction

Show ALL intermediate Stations  Show Old Time-Table

#CodeStation NameX/OArrivesAvgDepartsAvgHaltPFDay#KmSpeedElevZoneAddress
1ITRItwari (3)  -21:30+4--1-604.121306mSECRNagpur, Maharashtra
2KAVKalamna (3)  21:38+821:40+122m--1-601.251296mSECRNagpur, Maharashtra
3KPKamptee (3)X  21:50 21:49+1321:52 21:51+162m--1-593.626290mSECRKamptee, Maharashtra
4KNHNKanhan Junction (3)  22:02+1422:04+142m--1-588.986288mSECRKanhan, Maharashtra
5SALSalwa (2)X  22:08+1822:10+182m--1-583.166289mSECRNagpur, Maharashtra
6CHCRChacher (2)O  22:16+1822:18+202m--1-576.563284mSECRNagpur, Maharashtra
7TARTharsa (3)X  22:24+2122:26+232m--1-570.268292mSECRNagpur, Maharashtra
8RRLRewral (2)X  22:31+2422:33+232m--1-564.677293mSECRNagpur Distt, Maharashtra
9KHATKhat (2)  22:40+2422:42+252m--1-555.654286mSECRNagpur, Maharashtra
10BRDBhandara Road (3)X  22:53+1522:55+162m--1-545.654266mSECRState Highway 252 Bhandara District, Maharashtra
11TMRTumsar Road (5)O  23:15+1823:20+165m--1-527.788267mSECRDistt. Bhandara, Maharashtra
12MNUMundikota (2)X  23:27+2223:29+212m--1-517.467269mSECRBhandara, Maharashtra
13TROTirora (3)  23:38+2223:40+222m--1-507.368282mSECRDist Gondia, Maharashtra
14KWNKachewani (3)  23:46+2523:48+262m--1-500.572303mSECRKachewani Gondia District, Maharashtra
15GJGangajhari (3)  23:55+2623:57+272m--1-492.237315mSECRGondia District, Maharashtra
16GGondia Junction (7)  00:25 00:20+900:35 00:30+1110m32-478.1102316mSECRGondia 441601, Maharashtra
17GDMGudma (2)  00:43 00:37+2400:45 00:39+242m--2-466.173323mSECRGondia, Maharashtra
18AGNAmgaon (2)  00:54 00:48+2300:56 00:50+232m--2-455.288317mSECRGondia, Maharashtra
19SKSSalekasa (2)X  01:07 01:00+2501:09 01:02+272m--2-440.553312mSECRRajnandgaon, Chhattisgarh
20DKSDarekasa (2)  01:22 01:15+2701:24 01:17+272m--2-429.066381mSECRRajnandgaon, Chhattisgarh
21BTLBortalao (2)X  01:31 01:24+2801:33 01:26+322m--2-421.353409mSECRRajnandgaon, Chhattisgarh
22PJBPaniajob (2)X  01:43 01:36+3201:45 01:38+342m--2-412.527363mSECRRajnandgaon, Chhattisgarh
23DGGDongargarh (2)  02:00 01:55+2502:10 02:05+2610m--2-404.8130 SECRDongargarh, Chhattisgarh
24JTRJatkanhar  02:14 02:08+3102:16 02:10+312m--2-398.267330mSECRRajnandgaon, Chhattisgarh
25MUAMusra  02:22 02:16+3102:24 02:18+312m--2-391.665323mSECRRajnandgaon, Chhattisgarh
26RJNRaj Nandgaon (3)  02:40 02:35+2702:45 02:40+275m--2-373.2100313mSECRRajnandgaon, Chhattisgarh
27MUPMurhipar  02:54 02:49+3202:56 02:51+322m--2-358.317319mSECRRajnandgaon, Chhattisgarh
28DURGDurg Junction (6)X  03:55 03:45+304:00 03:50+55m--2-342.854299mSECRPh: 91-788-2322059, Chhattisgarh
29BQRBhilai Nagar (2)X  04:06 03:55+804:07 03:57+81 2m--2-338.366298mSECRBhilai, Chhattisgarh
30BPHBBhilai Power House (3)  04:11 04:01+004:13 04:03+02m--2-333.856312mSECRBhilai, Chhattisgarh
31BIABhilai (2)  04:18 04:08+904:20 04:10+92m--2-329.252309mSECRBhilai, Chhattisgarh
32DBECDevbaloda Charoda  04:24 04:14+004:26 04:16+02m--2-325.722310mSECRBhilai, Chhattisgarh
33KMIKumhari (2)XO  04:46 04:36+904:48 04:38+92m--2-318.220287mSECRKumhari, Chhattisgarh
34RRaipur Junction (6)XO  05:15+605:35+620m--2-305.852297mSECRRaipur, Chhattisgarh
35WRCWRS Colony PH  05:38-05:40-2m--2-303.236286mSECRRaipur, Chhattisgarh
36URKUrkura  05:46 05:45+1005:48 05:47+92m--2-300.286275mSECRRaipur, Chhattisgarh
37MDHMandharX  05:55 05:53+1105:56 05:55+131 2m--2-291.772281mSECRDonde Kalan, Chhattisgarh
38SLHSiliariX  06:05 06:03+1606:06 06:05+181 2m--2-282.163280mSECRBanjari Rd, Chhattisgarh
39BKTHBaikunthX  06:15 06:13+2206:17 06:15+212m--2-273.846287mSECRBanjari Rd, Chhattisgarh
40TLDTilda (3)X  06:25 06:23+1706:27 06:25+172m--2-267.680 SECRBanjari Rd, Chhattisgarh
41HNHathbandhX  06:35 06:33+1706:37 06:35+192m--2-256.984283mSECRRaipur, Chhattisgarh
42BYTBhatapara (4)X  06:48 06:46+2106:50 06:48+212m--2-241.668270mSECRBanjari Road, Chhattisgarh
43NPINipania  07:05 07:01+2007:06 07:03+211 2m--2-226.870259mSECRNational Highway 200, Chhattisgarh
44DGSDagoriX  07:15 07:10+2207:16 07:12+231 2m--2-218.692254mSECRCollege Road, Chhattisgarh
45BYLBelha  07:21 07:17+2607:23 07:19+252m--2-210.958269mSECRCollege Road, Chhattisgarh
46CHBTChakarbhathaX  07:28 07:25-07:30 07:26-2 1m--2-205.137285mSECRBilaspur, Chhattisgarh
47DPHDadhapara (3)XO  07:35 07:31+2907:37 07:32+302 1m--2-202.18272mSECRBilaspur, Chhattisgarh
48BSPBilaspur Junction (8)X  08:25+808:40+1315m22-195.449271mSECRBilaspur, Chhattisgarh
49GTWGatoraX  08:48+1608:50+172m--2-188.957268mSECRBilaspur, Chhattisgarh
50JRMGJairamnagarX  08:58+1809:00+182m--2-181.367272mSECRNational Highway 200, Chhattisgarh
51KTSHKotmi Sonar HaltX  09:06-09:08-2m--2-174.664266mSECRKotmisunar, Chhattisgarh
52AKTAkaltara (4)X  09:14+2209:16+222m--2-168.258284mSECRDist. Janjgir Champa, Chhattisgarh
53KPNAKapan (1)O  09:23 09:24-09:25 09:26-2m12-160.554263mSECRNational Highway 200, Chhattisgarh
54NIANailaX  09:34+2109:36+222m--2-153.234273mSECRJanjgir, Chhattisgarh
55CPHChampa Junction (3)X  09:55+2210:00+255m--2-142.477264mSECRNational Highway 200 (07819-245767), Chhattisgarh
56SGRDSaragaon Road  10:07-10:08-1m--2-133.478254mSECRNational Highway 200, Chhattisgarh
57BUABaradwarX  10:12 10:13+2810:14 10:15+302m--2-126.961 SECRJanjgir-Champa, Chhattisgarh
58JDDAJetha  10:21 10:22-10:22 10:23-1m--2-119.793244mSECRNational Highway 200, Chhattisgarh
59SKTSakti (4)  10:28+3310:30+362m--2-112.056237mSECRJanjgir-Champa, Chhattisgarh
60JDIJharradih  10:41+3510:43+402m--2-101.863247mSECRRaigarh, Chhattisgarh
61KHSKharsia  10:48+4110:50+422m--2-96.673 SECRNational Highway 200, Chhattisgarh
62ROBRobertson  10:57+4110:59+412m--2-88.177239mSECRRaigarh, Chhattisgarh
63BEFBhupdeopur  11:07 11:06+4711:09 11:08+472m--2-79.179243mSECRRaigarh, Chhattisgarh
64KDTRKirodimalnagar (5)O  11:16 11:15+5111:18 11:17+512m--2-69.824240mSECRRaigarh, Chhattisgarh
65RIGRaigarh (3)O  11:35+4311:40+475m--2-62.697220mSECRRaigarh, Chhattisgarh
66KRLKotarliaO  11:46+5811:48+592m--2-52.973229mSECRRaigarh, Chhattisgarh
67JMGJamga  11:55+1:0111:57+1:172m--2-44.472233mSECRJamga Station, Chhattisgarh
68DAODaghoraX  12:08 12:07+1:1612:10 12:09+1:152m--2-32.434269mSECRRaigarh, Chhattisgarh
69HGRHimgir  12:23 12:22+1:1312:25 12:24+1:162m--2-25.081275mSECRNational Highway 200, Chhattisgarh
70BPHBelpahar  12:35 12:34+1:1812:37 12:36+1:202m--2-11.633 SECRBelpahar, Odisha
71BRJNBrajrajnagarXO  12:58 12:52+1:1213:00 12:54+1:122m--2-2.77212mSECRBrajrajnagar, Odisha
72IBIb»XO  13:28 13:18+5713:30 13:20+592m--20.07207mSECRJharsuguda, Odisha
73JSGJharsuguda Junction (5)X  14:35+1314:55+2220m--29.057236mSERJharsuguda, Odisha
74DTVDhutra  15:04+2815:05+361m--217.647240mSERJharsuguda, Odisha
75PNPLPanpaliX  15:12-15:13-1m--223.156258mSERJharsuguda, Odisha
76BEHBagdihi (3)O  15:20+3415:21+381m--229.654257mSERState Highway 24 PH: 06640-286227, Odisha
77DIHDharuadihi  15:28+4015:29+441m--235.964258mSERSH 24, Odisha
78BMBBamra (3)  15:38+4015:39+461m--245.556259mSERBamra PH : 06642-229268, Odisha
79TGMTangarmundaX  15:48+5015:49+511m--254.058264mSERSundargarh, Odisha
80GPHGarpos (3)  15:57+5215:58+561m--261.747281mSERSundargarh, Odisha
81SOGRSograO  16:04+1:0016:05+1:021m--266.455293mSERState Highway 10, Odisha
82SXNSonakhan  16:12+5816:13+581m--272.955249mSERSundargarh, Odisha
83GPRaj Gangpur (3)  16:21+5916:22+1:031m--280.155237mSERRaj Ganpur, Odisha
84KXNKanshbahal  16:32+1:0616:33+1:081m--289.453217mSERSundargarh, Odisha
85KLGKalunga  16:41+1:0916:42+1:141m--296.450203mSERSundargarh, Odisha
86PPOPanposh (2)X  16:51+1:1616:52+1:181m--2103.98190mSERRourkela, Odisha
87ROURourkela Junction (5)  17:40+2618:40+2860m42110.060198mSERRourkela, Odisha
88KCABBondamunda K Cabin new halt!!  18:46+5118:47+511m--2115.96214mSERRourkela, Odisha
89BNDMBondamunda (2)  18:53+1:0018:54+1:001m--2116.541213mSERRourkela, Odisha
90BZRBisra  19:05+5319:06+541m--2124.158224mSERSundargarh, Odisha
91BULBhalulata  19:13+5519:14+571m--2130.950239mSERRourkela, Jharkhand
92JRAJaraikelaX  19:23+5519:24+571m--2138.468215mSERJaraikela Station, Jharkhand
93MOUManoharpurX  19:34+1:0019:35+1:051m--2149.831228mSERManoharpur, Jharkhand
94PSTPosotia (4)X  19:52 19:56+1:0219:53 19:57+1:061m--2160.751279mSERPosotia Station, Jharkhand
95DRWNDerowan P. HaltX  20:01 20:05-20:02 20:06-1m--2167.628275mSERDerowan, Jharkhand
96MXWMahadevsal new halt!!  20:15+5120:16+521m--2171.854321mSERMahadevsal, Jharkhand
97GOLGoilkera (2)  20:18 20:22+1:0620:19 20:23+1:071m--2177.251333mSERGoilkera, Jharkhand
98TUXTunia  20:27 20:31+1:0520:28 20:32+1:061m--2184.045297mSERTunia Station, Jharkhand
99SWRSonua  20:36 20:40+1:0020:37 20:41+1:091m--2190.069287mSERSonua, Jharkhand
100LPHLotapaharX  20:47 20:51+1:1120:48 20:52+1:191m--2201.525251mSERLotapahar Station, Jharkhand
101CKPChakradharpur (3)  21:10 21:15+1:0721:50+4740 35m--2211.064235mSERChakradharpur (West Singhbhum), Jharkhand
102BRMBarabamboX  22:00+2:0622:01+2:101m--2221.756213mSERBarabambo Station, Jharkhand
103RKSNRajkharsawan Junction (3)  22:11+1:0422:12+1:041m--2231.150189mSERSaraikela Kharswan District, Jharkhand
104MMVMahali Marup (2)X  22:21+1:0422:22+1:051m--2238.651183mSERMahali Marup Station, Jharkhand
105SINISini Junction (3)  22:31+1:0322:32+1:031m22246.348182mSERNational Highway 33, Jharkhand
106BRBSBirbans  22:41-22:42-1m--2253.654171mSERBirbans, Jharkhand
107GMHGamharia (3)X  22:52-22:53-1m22262.640165mSERJamshedpur, Jharkhand
108ADTPAdityapur (3)  23:02+023:03+01m22268.64152mSERJamshedpur, Jharkhand
109TATATatanagar Junction (5)•  00:05+3-43273.3-164mSER91-657-2423026, Jharkhand
Scroll to Top
Scroll to Bottom